Time,TemperatureF,DewpointF,PressureIn,WindDirection,WindDirectionDegrees,WindSpeedMPH,WindSpeedGustMPH,Humidity,HourlyPrecipIn,Conditions,Clouds,dailyrainin,SoftwareType,DateUTC
2013-07-16 00:00:00,53.1,52.5,29.98,North,0,3.2,-999.0,98,-99.99,,,0.00,Acu-Link.com,2013-07-16 06:00:00,
2013-07-16 00:15:00,52.3,51.8,30.00,SSW,202,0.0,-999.0,98,-99.99,,,0.00,Acu-Link.com,2013-07-16 06:15:00,
2013-07-16 00:30:00,52.9,52.4,30.00,ENE,67,2.7,-999.0,98,-99.99,,,0.00,Acu-Link.com,2013-07-16 06:30:00,
2013-07-16 00:46:00,52.5,52.0,29.99,NNW,337,1.7,-999.0,98,-99.99,,,0.00,Acu-Link.com,2013-07-16 06:46:00,
2013-07-16 01:01:00,52.3,51.8,30.00,NNE,22,2.2,-999.0,98,-99.99,,,0.00,Acu-Link.com,2013-07-16 07:01:00,
2013-07-16 01:16:00,53.1,52.5,30.00,NE,45,2.2,-999.0,98,-99.99,,,0.00,Acu-Link.com,2013-07-16 07:16:00,
2013-07-16 01:32:00,53.4,52.8,30.00,NNE,22,2.7,-999.0,98,-99.99,,,0.00,Acu-Link.com,2013-07-16 07:32:00,
2013-07-16 01:47:00,54.0,53.4,30.00,North,0,2.7,-999.0,98,-99.99,,,0.00,Acu-Link.com,2013-07-16 07:47:00,
2013-07-16 02:02:00,54.5,53.9,30.00,NNE,22,2.7,-999.0,98,-99.99,,,0.00,Acu-Link.com,2013-07-16 08:02:00,
2013-07-16 02:17:00,54.5,53.9,30.00,North,0,4.7,-999.0,98,-99.99,,,0.00,Acu-Link.com,2013-07-16 08:17:00,
2013-07-16 02:33:00,54.7,54.1,30.00,East,90,1.1,-999.0,98,-99.99,,,0.00,Acu-Link.com,2013-07-16 08:33:00,
2013-07-16 02:48:00,54.3,53.7,29.99,NNE,22,0.0,-999.0,98,-99.99,,,0.00,Acu-Link.com,2013-07-16 08:48:00,
2013-07-16 03:03:00,53.8,53.2,30.00,North,0,2.2,-999.0,98,-99.99,,,0.00,Acu-Link.com,2013-07-16 09:03:00,
2013-07-16 03:18:00,53.8,53.2,29.99,NNW,337,4.2,-999.0,98,-99.99,,,0.00,Acu-Link.com,2013-07-16 09:18:00,
2013-07-16 03:33:00,53.6,53.0,29.99,WNW,292,0.0,-999.0,98,-99.99,,,0.00,Acu-Link.com,2013-07-16 09:33:00,
2013-07-16 03:48:00,51.4,50.9,29.99,NE,45,3.7,-999.0,98,-99.99,,,0.00,Acu-Link.com,2013-07-16 09:48:00,
2013-07-16 04:04:00,51.1,50.6,29.99,NNW,337,3.2,-999.0,98,-99.99,,,0.00,Acu-Link.com,2013-07-16 10:04:00,
2013-07-16 04:19:00,52.5,52.0,29.99,NNW,337,4.2,-999.0,98,-99.99,,,0.00,Acu-Link.com,2013-07-16 10:19:00,
2013-07-16 04:34:00,51.8,51.3,30.00,North,0,4.2,-999.0,98,-99.99,,,0.00,Acu-Link.com,2013-07-16 10:34:00,
2013-07-16 04:49:00,51.3,50.8,29.99,NNE,22,3.7,-999.0,98,-99.99,,,0.00,Acu-Link.com,2013-07-16 10:49:00,
2013-07-16 05:05:00,51.3,50.8,29.99,NNE,22,3.7,-999.0,98,-99.99,,,0.00,Acu-Link.com,2013-07-16 11:05:00,
2013-07-16 05:20:00,50.9,50.4,29.99,North,0,2.7,-999.0,98,-99.99,,,0.00,Acu-Link.com,2013-07-16 11:20:00,
2013-07-16 05:35:00,50.9,50.4,30.00,NE,45,2.7,-999.0,98,-99.99,,,0.00,Acu-Link.com,2013-07-16 11:35:00,
2013-07-16 05:50:00,50.9,50.4,30.01,NNE,22,3.2,-999.0,98,-99.99,,,0.00,Acu-Link.com,2013-07-16 11:50:00,
2013-07-16 06:05:00,50.4,49.9,30.00,NE,45,4.2,-999.0,98,-99.99,,,0.00,Acu-Link.com,2013-07-16 12:05:00,
2013-07-16 06:21:00,50.4,49.9,30.02,ENE,67,4.2,-999.0,98,-99.99,,,0.00,Acu-Link.com,2013-07-16 12:21:00,
2013-07-16 06:36:00,50.7,50.2,30.02,North,0,3.2,-999.0,98,-99.99,,,0.00,Acu-Link.com,2013-07-16 12:36:00,
2013-07-16 06:51:00,54.7,53.6,30.02,North,0,2.2,-999.0,96,-99.99,,,0.00,Acu-Link.com,2013-07-16 12:51:00,
2013-07-16 07:06:00,59.5,53.7,30.02,ENE,67,2.7,-999.0,81,-99.99,,,0.00,Acu-Link.com,2013-07-16 13:06:00,
2013-07-16 07:21:00,61.2,54.6,30.02,East,90,2.7,-999.0,79,-99.99,,,0.00,Acu-Link.com,2013-07-16 13:21:00,
2013-07-16 07:37:00,65.5,55.4,30.02,ESE,112,0.0,-999.0,70,-99.99,,,0.00,Acu-Link.com,2013-07-16 13:37:00,
2013-07-16 07:52:00,67.3,55.5,30.02,East,90,2.7,-999.0,66,-99.99,,,0.00,Acu-Link.com,2013-07-16 13:52:00,
2013-07-16 08:07:00,65.7,55.6,30.02,NE,45,3.7,-999.0,70,-99.99,,,0.00,Acu-Link.com,2013-07-16 14:07:00,
2013-07-16 08:22:00,66.9,55.6,30.02,East,90,2.7,-999.0,67,-99.99,,,0.00,Acu-Link.com,2013-07-16 14:22:00,
2013-07-16 08:37:00,68.0,56.2,30.02,East,90,3.7,-999.0,66,-99.99,,,0.00,Acu-Link.com,2013-07-16 14:37:00,
2013-07-16 08:53:00,69.4,56.7,30.02,ESE,112,3.2,-999.0,64,-99.99,,,0.00,Acu-Link.com,2013-07-16 14:53:00,
2013-07-16 09:08:00,70.0,56.4,30.01,NE,45,3.2,-999.0,62,-99.99,,,0.00,Acu-Link.com,2013-07-16 15:08:00,
2013-07-16 09:23:00,73.8,56.6,30.01,West,270,1.7,-999.0,55,-99.99,,,0.00,Acu-Link.com,2013-07-16 15:23:00,
2013-07-16 09:39:00,67.6,56.2,30.01,ESE,112,1.7,-999.0,67,-99.99,,,0.00,Acu-Link.com,2013-07-16 15:39:00,
2013-07-16 09:54:00,66.4,56.7,30.00,SSW,202,2.2,-999.0,71,-99.99,,,0.00,Acu-Link.com,2013-07-16 15:54:00,
2013-07-16 10:09:00,67.6,57.1,29.99,SSW,202,2.7,-999.0,69,-99.99,,,0.00,Acu-Link.com,2013-07-16 16:09:00,
2013-07-16 10:24:00,69.6,58.6,30.00,East,90,4.7,-999.0,68,-99.99,,,0.00,Acu-Link.com,2013-07-16 16:24:00,
2013-07-16 10:39:00,69.4,56.7,29.98,ESE,112,0.0,-999.0,64,-99.99,,,0.00,Acu-Link.com,2013-07-16 16:39:00,
2013-07-16 10:54:00,71.1,59.6,29.99,South,180,4.7,-999.0,67,-99.99,,,0.00,Acu-Link.com,2013-07-16 16:54:00,
2013-07-16 11:10:00,71.2,59.2,29.99,NNW,337,3.7,-999.0,66,-99.99,,,0.00,Acu-Link.com,2013-07-16 17:10:00,
2013-07-16 11:25:00,72.1,58.3,29.98,West,270,3.7,-999.0,62,-99.99,,,0.00,Acu-Link.com,2013-07-16 17:25:00,
2013-07-16 11:41:00,72.7,59.8,29.98,West,270,2.2,-999.0,64,-99.99,,,0.00,Acu-Link.com,2013-07-16 17:41:00,
2013-07-16 11:56:00,74.7,60.8,29.97,SW,225,4.2,-999.0,62,-99.99,,,0.00,Acu-Link.com,2013-07-16 17:56:00,
2013-07-16 12:11:00,75.4,59.6,29.97,SE,135,3.7,-999.0,58,-99.99,,,0.00,Acu-Link.com,2013-07-16 18:11:00,
2013-07-16 12:26:00,77.4,61.4,29.97,SW,225,2.2,-999.0,58,-99.99,,,0.00,Acu-Link.com,2013-07-16 18:26:00,
2013-07-16 12:42:00,77.2,57.7,29.96,ENE,67,3.2,-999.0,51,-99.99,,,0.00,Acu-Link.com,2013-07-16 18:42:00,
2013-07-16 12:57:00,78.3,58.1,29.97,South,180,5.3,-999.0,50,-99.99,,,0.00,Acu-Link.com,2013-07-16 18:57:00,
2013-07-16 13:12:00,77.9,59.4,29.95,SSW,202,4.7,-999.0,53,-99.99,,,0.00,Acu-Link.com,2013-07-16 19:12:00,
2013-07-16 13:27:00,78.6,56.1,29.94,NNE,22,1.7,-999.0,46,-99.99,,,0.00,Acu-Link.com,2013-07-16 19:27:00,
2013-07-16 13:42:00,79.9,58.4,29.94,West,270,2.7,-999.0,48,-99.99,,,0.00,Acu-Link.com,2013-07-16 19:42:00,
2013-07-16 13:58:00,78.8,58.6,29.93,SSW,202,3.2,-999.0,50,-99.99,,,0.00,Acu-Link.com,2013-07-16 19:58:00,
2013-07-16 14:13:00,77.9,56.0,29.92,NNW,337,2.2,-999.0,47,-99.99,,,0.00,Acu-Link.com,2013-07-16 20:13:00,
2013-07-16 14:28:00,80.8,58.1,29.93,SW,225,1.1,-999.0,46,-99.99,,,0.00,Acu-Link.com,2013-07-16 20:28:00,
2013-07-16 14:44:00,79.9,58.4,29.91,ENE,67,2.7,-999.0,48,-99.99,,,0.00,Acu-Link.com,2013-07-16 20:44:00,
2013-07-16 14:59:00,81.0,56.4,29.90,NE,45,4.7,-999.0,43,-99.99,,,0.00,Acu-Link.com,2013-07-16 20:59:00,
2013-07-16 15:14:00,82.6,54.4,29.90,WNW,292,1.7,-999.0,38,-99.99,,,0.00,Acu-Link.com,2013-07-16 21:14:00,
2013-07-16 15:29:00,79.2,55.4,29.89,NE,45,8.9,-999.0,44,-99.99,,,0.00,Acu-Link.com,2013-07-16 21:29:00,
2013-07-16 15:44:00,82.2,52.6,29.89,NNE,22,3.7,-999.0,36,-99.99,,,0.00,Acu-Link.com,2013-07-16 21:44:00,
2013-07-16 16:00:00,83.3,52.8,29.90,NNE,22,4.7,-999.0,35,-99.99,,,0.00,Acu-Link.com,2013-07-16 22:00:00,
2013-07-16 16:15:00,79.7,53.2,29.88,SSW,202,0.0,-999.0,40,-99.99,,,0.00,Acu-Link.com,2013-07-16 22:15:00,
2013-07-16 16:30:00,78.8,51.7,29.88,East,90,4.7,-999.0,39,-99.99,,,0.00,Acu-Link.com,2013-07-16 22:30:00,
2013-07-16 16:46:00,81.7,52.1,29.88,South,180,5.3,-999.0,36,-99.99,,,0.00,Acu-Link.com,2013-07-16 22:46:00,
2013-07-16 17:01:00,81.5,51.2,29.88,ESE,112,8.9,-999.0,35,-99.99,,,0.00,Acu-Link.com,2013-07-16 23:01:00,
2013-07-16 17:16:00,80.4,49.4,29.88,ESE,112,8.9,-999.0,34,-99.99,,,0.00,Acu-Link.com,2013-07-16 23:16:00,
2013-07-16 17:31:00,76.8,48.5,29.88,SSE,157,11.9,-999.0,37,-99.99,,,0.00,Acu-Link.com,2013-07-16 23:31:00,
2013-07-16 17:46:00,77.0,48.7,29.89,ENE,67,8.3,-999.0,37,-99.99,,,0.00,Acu-Link.com,2013-07-16 23:46:00,
2013-07-16 18:01:00,75.7,48.3,29.88,SE,135,10.4,-999.0,38,-99.99,,,0.00,Acu-Link.com,2013-07-17 00:01:00,
2013-07-16 18:16:00,74.1,49.5,29.89,SSE,157,8.3,-999.0,42,-99.99,,,0.00,Acu-Link.com,2013-07-17 00:16:00,
2013-07-16 18:31:00,73.2,49.3,29.89,SSE,157,4.7,-999.0,43,-99.99,,,0.00,Acu-Link.com,2013-07-17 00:31:00,
2013-07-16 18:47:00,72.7,47.6,29.90,SE,135,4.7,-999.0,41,-99.99,,,0.00,Acu-Link.com,2013-07-17 00:47:00,
2013-07-16 19:02:00,73.0,45.9,29.91,ESE,112,6.3,-999.0,38,-99.99,,,0.00,Acu-Link.com,2013-07-17 01:02:00,
2013-07-16 19:17:00,72.0,50.1,29.92,South,180,7.8,-999.0,46,-99.99,,,0.00,Acu-Link.com,2013-07-17 01:17:00,
2013-07-16 19:32:00,71.6,49.1,29.94,SSE,157,10.4,-999.0,45,-99.99,,,0.00,Acu-Link.com,2013-07-17 01:32:00,
2013-07-16 19:47:00,70.2,49.0,29.94,South,180,10.4,-999.0,47,-99.99,,,0.00,Acu-Link.com,2013-07-17 01:47:00,
2013-07-16 20:03:00,70.2,49.0,29.94,SE,135,8.9,-999.0,47,-99.99,,,0.00,Acu-Link.com,2013-07-17 02:03:00,
2013-07-16 20:18:00,69.3,48.8,29.95,South,180,8.9,-999.0,48,-99.99,,,0.00,Acu-Link.com,2013-07-17 02:18:00,
2013-07-16 20:33:00,69.1,48.6,29.96,ESE,112,8.3,-999.0,48,-99.99,,,0.00,Acu-Link.com,2013-07-17 02:33:00,
2013-07-16 20:48:00,68.4,49.0,29.98,East,90,6.8,-999.0,50,-99.99,,,0.00,Acu-Link.com,2013-07-17 02:48:00,
2013-07-16 21:03:00,67.6,49.9,29.99,SE,135,7.8,-999.0,53,-99.99,,,0.00,Acu-Link.com,2013-07-17 03:03:00,
2013-07-16 21:18:00,66.7,49.5,29.99,ENE,67,10.4,-999.0,54,-99.99,,,0.00,Acu-Link.com,2013-07-17 03:18:00,
2013-07-16 21:34:00,65.5,48.9,30.01,South,180,6.3,-999.0,55,-99.99,,,0.00,Acu-Link.com,2013-07-17 03:34:00,
2013-07-16 21:49:00,65.5,49.4,30.01,East,90,9.4,-999.0,56,-99.99,,,0.00,Acu-Link.com,2013-07-17 03:49:00,
2013-07-16 22:04:00,64.2,49.6,30.01,ESE,112,8.9,-999.0,59,-99.99,,,0.00,Acu-Link.com,2013-07-17 04:04:00,
2013-07-16 22:19:00,63.3,49.2,30.03,SE,135,5.3,-999.0,60,-99.99,,,0.00,Acu-Link.com,2013-07-17 04:19:00,
2013-07-16 22:34:00,63.5,48.9,30.04,ESE,112,8.9,-999.0,59,-99.99,,,0.00,Acu-Link.com,2013-07-17 04:34:00,
2013-07-16 22:49:00,63.1,49.0,30.05,ESE,112,6.3,-999.0,60,-99.99,,,0.00,Acu-Link.com,2013-07-17 04:49:00,
2013-07-16 23:05:00,62.6,48.5,30.06,SE,135,7.8,-999.0,60,-99.99,,,0.00,Acu-Link.com,2013-07-17 05:05:00,
2013-07-16 23:20:00,62.1,48.5,30.07,ESE,112,5.8,-999.0,61,-99.99,,,0.00,Acu-Link.com,2013-07-17 05:20:00,
2013-07-16 23:35:00,61.2,48.5,30.07,ESE,112,11.4,-999.0,63,-99.99,,,0.00,Acu-Link.com,2013-07-17 05:35:00,
2013-07-16 23:50:00,60.3,48.1,30.10,East,90,6.3,-999.0,64,-99.99,,,0.00,Acu-Link.com,2013-07-17 05:50:00,